createdAt,value
2022-12-27T00:00:14.467Z,101091.60
2022-12-27T00:03:03.186Z,101096.80
2022-12-27T00:05:31.839Z,101094.80
2022-12-27T00:08:00.533Z,101092.80
2022-12-27T00:10:29.316Z,101099.80
2022-12-27T00:12:58.003Z,101095.20
2022-12-27T00:15:27.621Z,101095.00
2022-12-27T00:17:56.298Z,101094.00
2022-12-27T00:20:24.893Z,101099.00
2022-12-27T00:22:53.468Z,101093.20
2022-12-27T00:25:22.252Z,101087.80
2022-12-27T00:27:50.746Z,101096.60
2022-12-27T00:30:19.451Z,101108.40
2022-12-27T00:32:48.017Z,101112.40
2022-12-27T00:35:16.598Z,101112.80
2022-12-27T00:37:45.181Z,101118.00
2022-12-27T00:40:13.868Z,101117.20
2022-12-27T00:42:42.555Z,101117.00
2022-12-27T00:45:11.665Z,101124.40
2022-12-27T00:47:40.644Z,101126.80
2022-12-27T00:50:09.685Z,101132.60
2022-12-27T00:52:38.217Z,101134.80
2022-12-27T00:55:07.524Z,101138.40
2022-12-27T00:57:36.210Z,101143.20
2022-12-27T01:00:10.372Z,101155.00
2022-12-27T01:02:40.433Z,101159.40
2022-12-27T01:05:09.526Z,101162.60
2022-12-27T01:07:38.024Z,101165.40
2022-12-27T01:10:07.545Z,101165.20
2022-12-27T01:12:37.142Z,101171.20
2022-12-27T01:15:07.650Z,101169.20
2022-12-27T01:17:36.566Z,101183.20
2022-12-27T01:20:06.072Z,101179.20
2022-12-27T01:22:34.654Z,101185.60
2022-12-27T01:25:03.855Z,101188.00
2022-12-27T01:27:32.433Z,101192.60
2022-12-27T01:30:01.221Z,101193.80
2022-12-27T01:32:32.427Z,101200.40
2022-12-27T01:35:01.467Z,101202.80
2022-12-27T01:37:30.149Z,101211.60
2022-12-27T01:39:59.054Z,101214.40
2022-12-27T01:42:47.390Z,101212.40
2022-12-27T01:45:29.444Z,101212.80
2022-12-27T01:48:21.969Z,101217.40
2022-12-27T01:50:57.995Z,101223.60
2022-12-27T01:53:44.537Z,101228.80
2022-12-27T01:56:26.298Z,101231.00
2022-12-27T01:59:09.627Z,101232.20
2022-12-27T02:01:47.459Z,101235.20
2022-12-27T02:04:21.239Z,101238.00
2022-12-27T02:06:51.249Z,101249.80
2022-12-27T02:09:34.579Z,101251.00
2022-12-27T02:12:06.955Z,101259.40
2022-12-27T02:14:49.412Z,101261.00
2022-12-27T02:17:24.966Z,101267.00
2022-12-27T02:20:03.952Z,101265.80
2022-12-27T02:23:44.819Z,101265.60
2022-12-27T02:26:53.445Z,101270.40
2022-12-27T02:29:30.626Z,101276.40
2022-12-27T02:32:10.065Z,101279.40
2022-12-27T02:34:48.586Z,101283.40
2022-12-27T02:37:19.624Z,101287.60
2022-12-27T02:39:49.784Z,101291.00
2022-12-27T02:42:39.322Z,101291.60
2022-12-27T02:45:40.067Z,101296.80
2022-12-27T02:48:34.357Z,101298.60
2022-12-27T02:52:00.895Z,101303.20
2022-12-27T02:55:04.901Z,101304.80
2022-12-27T02:57:54.073Z,101304.20
2022-12-27T03:00:44.775Z,101306.80
2022-12-27T03:03:28.994Z,101318.20
2022-12-27T03:06:42.394Z,101316.40
2022-12-27T03:10:00.815Z,101325.60
2022-12-27T03:13:15.072Z,101331.60
2022-12-27T03:16:04.998Z,101336.80
2022-12-27T03:18:50.844Z,101333.60
2022-12-27T03:22:02.366Z,101337.00
2022-12-27T03:24:58.770Z,101339.00
2022-12-27T03:27:35.152Z,101349.00
2022-12-27T03:30:27.393Z,101351.60
2022-12-27T03:33:13.591Z,101365.00
2022-12-27T03:36:36.134Z,101365.20
2022-12-27T03:39:17.308Z,101366.80
2022-12-27T03:42:22.450Z,101373.60
2022-12-27T03:44:51.345Z,101374.20
2022-12-27T03:47:51.884Z,101391.20
2022-12-27T03:50:55.065Z,101387.60
2022-12-27T03:53:40.037Z,101392.40
2022-12-27T03:56:09.751Z,101395.80
2022-12-27T03:58:38.335Z,101400.40
2022-12-27T04:01:07.040Z,101406.20
2022-12-27T04:03:35.640Z,101403.40
2022-12-27T04:06:04.497Z,101399.20
2022-12-27T04:08:51.923Z,101408.00
2022-12-27T04:11:39.145Z,101413.60
2022-12-27T04:14:26.271Z,101417.40
2022-12-27T04:17:13.483Z,101420.80
2022-12-27T04:20:00.717Z,101422.00
2022-12-27T04:22:47.925Z,101425.20
2022-12-27T04:25:35.557Z,101424.80
2022-12-27T04:28:23.116Z,101428.20
2022-12-27T04:31:10.539Z,101428.80
2022-12-27T04:33:58.141Z,101438.00
2022-12-27T04:36:26.726Z,101437.80
2022-12-27T04:38:55.311Z,101435.60
2022-12-27T04:41:42.638Z,101442.20
2022-12-27T04:44:30.061Z,101435.40
2022-12-27T04:47:18.000Z,101434.20
2022-12-27T04:50:05.131Z,101430.80
2022-12-27T04:52:53.366Z,101436.60
2022-12-27T04:55:24.574Z,101436.20
2022-12-27T04:57:53.705Z,101442.80
2022-12-27T05:00:44.513Z,101435.20
2022-12-27T05:03:20.211Z,101440.20
2022-12-27T05:05:51.579Z,101444.80
2022-12-27T05:08:39.756Z,101451.00
2022-12-27T05:11:27.803Z,101450.20
2022-12-27T05:14:02.435Z,101460.00
2022-12-27T05:16:39.923Z,101454.00
2022-12-27T05:19:12.068Z,101456.40
2022-12-27T05:22:04.121Z,101451.20
2022-12-27T05:24:52.184Z,101455.00
2022-12-27T05:27:20.854Z,101457.80
2022-12-27T05:29:49.533Z,101453.00
2022-12-27T05:32:18.118Z,101454.80
2022-12-27T05:34:47.214Z,101461.60
2022-12-27T05:37:15.901Z,101465.40
2022-12-27T05:39:44.586Z,101466.60
2022-12-27T05:42:13.171Z,101464.80
2022-12-27T05:44:41.762Z,101464.80
2022-12-27T05:47:10.562Z,101466.00
2022-12-27T05:49:39.227Z,101469.80
2022-12-27T05:52:07.821Z,101465.40
2022-12-27T05:54:36.403Z,101473.20
2022-12-27T05:57:04.991Z,101474.20
2022-12-27T05:59:34.288Z,101474.40
2022-12-27T06:02:03.112Z,101475.80
2022-12-27T06:04:31.870Z,101486.00
2022-12-27T06:07:00.566Z,101482.00
2022-12-27T06:09:30.366Z,101491.40
2022-12-27T06:11:58.948Z,101494.80
2022-12-27T06:14:27.833Z,101495.20
2022-12-27T06:16:56.525Z,101494.20
2022-12-27T06:19:25.316Z,101495.80
2022-12-27T06:21:53.798Z,101495.60
2022-12-27T06:24:22.486Z,101504.80
2022-12-27T06:26:51.173Z,101505.60
2022-12-27T06:29:19.880Z,101506.80
2022-12-27T06:31:48.831Z,101510.00
2022-12-27T06:34:18.665Z,101510.00
2022-12-27T06:36:51.676Z,101509.80
2022-12-27T06:39:20.548Z,101511.80
2022-12-27T06:41:50.778Z,101508.00
2022-12-27T06:44:19.358Z,101512.40
2022-12-27T06:46:47.954Z,101516.80
2022-12-27T06:49:16.827Z,101522.60
2022-12-27T06:51:45.420Z,101528.80
2022-12-27T06:54:14.104Z,101533.20
2022-12-27T06:56:43.400Z,101526.00
2022-12-27T06:59:11.989Z,101533.20
2022-12-27T07:01:42.348Z,101529.00
2022-12-27T07:04:11.303Z,101534.40
2022-12-27T07:06:39.998Z,101538.80
2022-12-27T07:09:09.091Z,101541.60
2022-12-27T07:11:38.092Z,101541.20
2022-12-27T07:14:10.155Z,101542.40
2022-12-27T07:16:38.849Z,101544.40
2022-12-27T07:19:10.394Z,101540.60
2022-12-27T07:21:38.973Z,101546.00
2022-12-27T07:24:07.908Z,101544.00
2022-12-27T07:26:36.446Z,101552.60
2022-12-27T07:29:05.139Z,101556.20
2022-12-27T07:31:34.681Z,101568.80
2022-12-27T07:34:04.725Z,101573.20
2022-12-27T07:36:39.262Z,101563.40
2022-12-27T07:39:09.580Z,101568.00
2022-12-27T07:41:38.194Z,101564.40
2022-12-27T07:44:07.406Z,101566.00
2022-12-27T07:46:36.503Z,101567.00
2022-12-27T07:49:05.078Z,101568.80
2022-12-27T07:51:33.761Z,101578.80
2022-12-27T07:54:02.450Z,101583.60
2022-12-27T07:56:31.136Z,101588.80
2022-12-27T07:59:01.972Z,101587.00
2022-12-27T08:01:54.649Z,101591.20
2022-12-27T08:04:24.842Z,101595.40
2022-12-27T08:06:54.144Z,101588.60
2022-12-27T08:09:30.878Z,101592.20
2022-12-27T08:11:59.428Z,101597.80
2022-12-27T08:14:28.191Z,101604.40
2022-12-27T08:17:14.900Z,101592.80
2022-12-27T08:19:43.799Z,101598.20
2022-12-27T08:22:12.384Z,101602.80
2022-12-27T08:24:41.884Z,101601.80
2022-12-27T08:27:12.417Z,101610.00
2022-12-27T08:29:40.997Z,101613.00
2022-12-27T08:32:09.581Z,101613.20
2022-12-27T08:34:38.080Z,101614.00
2022-12-27T08:37:06.752Z,101615.40
2022-12-27T08:39:35.442Z,101610.40
2022-12-27T08:42:04.434Z,101604.40
2022-12-27T08:44:33.015Z,101616.20
2022-12-27T08:47:01.720Z,101613.00
2022-12-27T08:49:30.693Z,101619.20
2022-12-27T08:51:59.388Z,101622.60
2022-12-27T08:54:28.069Z,101621.60
2022-12-27T08:56:56.661Z,101625.80
2022-12-27T08:59:25.444Z,101624.40
2022-12-27T09:01:54.242Z,101626.40
2022-12-27T09:04:23.230Z,101628.40
2022-12-27T09:06:51.910Z,101624.60
2022-12-27T09:09:20.600Z,101618.40
2022-12-27T09:11:49.183Z,101615.00
2022-12-27T09:14:17.974Z,101612.20
2022-12-27T09:16:46.660Z,101610.40
2022-12-27T09:19:15.349Z,101605.80
2022-12-27T09:21:44.778Z,101604.20
2022-12-27T09:24:14.390Z,101617.60
2022-12-27T09:26:43.150Z,101618.40
2022-12-27T09:29:11.951Z,101610.00
2022-12-27T09:31:40.727Z,101622.00
2022-12-27T09:34:11.631Z,101621.40
2022-12-27T09:36:40.964Z,101620.00
2022-12-27T09:39:12.601Z,101615.80
2022-12-27T09:42:46.539Z,101613.00
2022-12-27T09:45:45.340Z,101606.40
2022-12-27T09:48:18.842Z,101612.00
2022-12-27T09:50:55.841Z,101616.00
2022-12-27T09:53:43.349Z,101613.60
2022-12-27T09:56:16.865Z,101614.20
2022-12-27T09:58:54.577Z,101610.60
2022-12-27T10:01:41.619Z,101601.80
2022-12-27T10:04:17.975Z,101600.20
2022-12-27T10:06:49.499Z,101592.80
2022-12-27T10:09:37.318Z,101599.40
2022-12-27T10:12:31.975Z,101600.60
2022-12-27T10:15:14.833Z,101594.40
2022-12-27T10:18:19.152Z,101599.80
2022-12-27T10:21:19.286Z,101613.00
2022-12-27T10:24:03.123Z,101602.40
2022-12-27T10:26:31.709Z,101606.80
2022-12-27T10:29:17.597Z,101611.60
2022-12-27T10:31:46.593Z,101625.20
2022-12-27T10:34:24.338Z,101619.60
2022-12-27T10:36:53.899Z,101613.20
2022-12-27T10:39:29.905Z,101623.20
2022-12-27T10:42:14.515Z,101626.60
2022-12-27T10:44:43.306Z,101628.60
2022-12-27T10:47:12.137Z,101633.60
2022-12-27T10:49:44.827Z,101629.60
2022-12-27T10:52:22.982Z,101630.40
2022-12-27T10:54:57.414Z,101627.00
2022-12-27T10:57:34.123Z,101624.20
2022-12-27T11:00:24.389Z,101617.80
2022-12-27T11:03:01.034Z,101617.20
2022-12-27T11:05:33.815Z,101615.20
2022-12-27T11:08:24.839Z,101623.80
2022-12-27T11:11:14.017Z,101619.60
2022-12-27T11:13:43.929Z,101623.20
2022-12-27T11:16:23.554Z,101621.80
2022-12-27T11:18:55.929Z,101620.20
2022-12-27T11:21:27.956Z,101636.00
2022-12-27T11:24:02.426Z,101634.40
2022-12-27T11:26:42.060Z,101636.60
2022-12-27T11:29:19.941Z,101638.40
2022-12-27T11:31:49.330Z,101643.00
2022-12-27T11:34:38.345Z,101640.80
2022-12-27T11:37:14.700Z,101637.40
2022-12-27T11:39:45.846Z,101641.60
2022-12-27T11:42:38.685Z,101636.40
2022-12-27T11:45:35.760Z,101635.60
2022-12-27T11:48:29.630Z,101638.00
2022-12-27T11:51:17.260Z,101631.60
2022-12-27T11:54:14.736Z,101628.20
2022-12-27T11:56:55.800Z,101630.40
2022-12-27T11:59:47.732Z,101631.00
2022-12-27T12:03:03.018Z,101636.40
2022-12-27T12:06:10.509Z,101635.00
2022-12-27T12:09:17.492Z,101635.40
2022-12-27T12:13:03.598Z,101640.80
2022-12-27T12:16:21.729Z,101641.40
2022-12-27T12:19:12.142Z,101641.20
2022-12-27T12:21:53.417Z,101647.60
2022-12-27T12:24:59.588Z,101657.80
2022-12-27T12:28:47.249Z,101655.40
2022-12-27T12:31:32.724Z,101658.40
2022-12-27T12:34:41.532Z,101663.80
2022-12-27T12:38:03.979Z,101666.60
2022-12-27T12:41:06.671Z,101664.40
2022-12-27T12:43:47.337Z,101665.20
2022-12-27T12:46:47.658Z,101668.20
2022-12-27T12:49:31.608Z,101666.80
2022-12-27T12:52:20.468Z,101678.00
2022-12-27T12:55:38.756Z,101678.40
2022-12-27T12:58:47.646Z,101682.20
2022-12-27T13:01:50.482Z,101681.00
2022-12-27T13:04:44.129Z,101678.80
2022-12-27T13:07:39.287Z,101678.60
2022-12-27T13:10:17.317Z,101668.60
2022-12-27T13:13:03.719Z,101680.00
2022-12-27T13:15:47.153Z,101680.80
2022-12-27T13:18:43.387Z,101676.40
2022-12-27T13:22:02.660Z,101684.40
2022-12-27T13:24:50.703Z,101688.80
2022-12-27T13:27:46.011Z,101689.00
2022-12-27T13:30:34.503Z,101684.40
2022-12-27T13:33:43.286Z,101683.40
2022-12-27T13:36:36.284Z,101686.40
2022-12-27T13:39:24.186Z,101687.20
2022-12-27T13:42:02.414Z,101694.80
2022-12-27T13:45:09.556Z,101697.80
2022-12-27T13:48:11.456Z,101693.80
2022-12-27T13:51:13.005Z,101698.80
2022-12-27T13:54:18.554Z,101706.80
2022-12-27T13:56:55.985Z,101706.80
2022-12-27T13:59:52.400Z,101707.60
2022-12-27T14:02:30.677Z,101712.60
2022-12-27T14:05:02.417Z,101712.00
2022-12-27T14:08:16.403Z,101710.60
2022-12-27T14:10:55.268Z,101720.20
2022-12-27T14:13:37.022Z,101726.00
2022-12-27T14:16:31.633Z,101724.80
2022-12-27T14:19:34.095Z,101729.40
2022-12-27T14:22:40.578Z,101739.40
2022-12-27T14:25:34.037Z,101732.40
2022-12-27T14:28:30.578Z,101729.40
2022-12-27T14:31:55.177Z,101725.00
2022-12-27T14:35:01.752Z,101732.40
2022-12-27T14:38:07.710Z,101736.40
2022-12-27T14:41:22.784Z,101738.60
2022-12-27T14:44:21.987Z,101739.00
2022-12-27T14:47:00.914Z,101749.20
2022-12-27T14:50:22.644Z,101747.80
2022-12-27T14:53:36.285Z,101750.20
2022-12-27T14:56:37.093Z,101743.80
2022-12-27T14:59:17.494Z,101751.40
2022-12-27T15:01:51.920Z,101758.40
2022-12-27T15:04:32.781Z,101765.40
2022-12-27T15:07:28.808Z,101772.40
2022-12-27T15:10:12.673Z,101771.20
2022-12-27T15:13:01.247Z,101775.60
2022-12-27T15:16:01.035Z,101777.40
2022-12-27T15:18:39.538Z,101775.80
2022-12-27T15:22:01.789Z,101781.80
2022-12-27T15:25:29.765Z,101787.60
2022-12-27T15:28:08.172Z,101788.40
2022-12-27T15:31:16.376Z,101789.80
2022-12-27T15:34:32.177Z,101787.20
2022-12-27T15:37:02.132Z,101788.40
2022-12-27T15:39:33.656Z,101789.00
2022-12-27T15:42:30.352Z,101804.60
2022-12-27T15:45:26.527Z,101807.60
2022-12-27T15:48:00.738Z,101810.40
2022-12-27T15:50:45.603Z,101811.60
2022-12-27T15:53:37.849Z,101810.20
2022-12-27T15:56:43.560Z,101811.00
2022-12-27T15:59:55.651Z,101812.80
2022-12-27T16:02:28.150Z,101808.60
2022-12-27T16:05:09.261Z,101810.80
2022-12-27T16:07:42.283Z,101809.20
2022-12-27T16:10:41.250Z,101809.40
2022-12-27T16:13:09.824Z,101814.40
2022-12-27T16:15:52.471Z,101818.20
2022-12-27T16:18:24.813Z,101811.00
2022-12-27T16:21:01.708Z,101813.00
2022-12-27T16:23:31.833Z,101806.80
2022-12-27T16:26:21.392Z,101815.80
2022-12-27T16:29:12.915Z,101822.80
2022-12-27T16:31:48.141Z,101829.40
2022-12-27T16:34:30.703Z,101827.60
2022-12-27T16:37:00.944Z,101831.80
2022-12-27T16:39:58.531Z,101823.20
2022-12-27T16:43:05.345Z,101821.00
2022-12-27T16:45:39.653Z,101824.40
2022-12-27T16:48:24.628Z,101823.60
2022-12-27T16:51:14.205Z,101824.60
2022-12-27T16:53:55.009Z,101829.20
2022-12-27T16:56:28.120Z,101832.80
2022-12-27T16:58:57.575Z,101838.20
2022-12-27T17:01:26.258Z,101839.20
2022-12-27T17:03:59.348Z,101838.40
2022-12-27T17:06:32.639Z,101841.00
2022-12-27T17:09:08.625Z,101842.60
2022-12-27T17:12:06.615Z,101846.40
2022-12-27T17:14:38.396Z,101846.60
2022-12-27T17:17:21.292Z,101847.60
2022-12-27T17:20:16.978Z,101849.40
2022-12-27T17:22:45.678Z,101850.00
2022-12-27T17:25:17.858Z,101848.20
2022-12-27T17:28:05.867Z,101850.80
2022-12-27T17:30:52.262Z,101844.20
2022-12-27T17:34:03.039Z,101846.00
2022-12-27T17:36:48.724Z,101851.00
2022-12-27T17:39:51.818Z,101855.80
2022-12-27T17:43:33.310Z,101847.80
2022-12-27T17:46:10.642Z,101851.20
2022-12-27T17:48:39.282Z,101851.00
2022-12-27T17:51:15.001Z,101849.60
2022-12-27T17:54:11.166Z,101847.60
2022-12-27T17:57:18.768Z,101851.20
2022-12-27T17:59:51.114Z,101848.20
2022-12-27T18:02:30.734Z,101848.20
2022-12-27T18:05:05.187Z,101850.20
2022-12-27T18:07:35.631Z,101848.20
2022-12-27T18:10:27.252Z,101857.80
2022-12-27T18:13:04.751Z,101855.80
2022-12-27T18:15:43.371Z,101868.20
2022-12-27T18:18:34.077Z,101861.40
2022-12-27T18:21:06.042Z,101859.60
2022-12-27T18:23:42.589Z,101857.40
2022-12-27T18:26:15.910Z,101861.60
2022-12-27T18:28:44.912Z,101857.00
2022-12-27T18:31:38.313Z,101860.00
2022-12-27T18:34:42.901Z,101868.80
2022-12-27T18:37:22.958Z,101868.20
2022-12-27T18:40:04.926Z,101865.60
2022-12-27T18:42:45.022Z,101867.80
2022-12-27T18:45:21.672Z,101863.40
2022-12-27T18:47:54.119Z,101864.20
2022-12-27T18:50:26.294Z,101873.40
2022-12-27T18:53:23.990Z,101876.20
2022-12-27T18:56:22.161Z,101871.80
2022-12-27T18:59:13.178Z,101874.00
2022-12-27T19:01:47.008Z,101877.20
2022-12-27T19:04:17.330Z,101879.80
2022-12-27T19:07:00.963Z,101881.20
2022-12-27T19:09:37.693Z,101887.80
2022-12-27T19:12:31.286Z,101893.40
2022-12-27T19:15:01.694Z,101888.80
2022-12-27T19:17:33.123Z,101890.00
2022-12-27T19:20:05.074Z,101888.00
2022-12-27T19:22:40.573Z,101886.40
2022-12-27T19:25:27.288Z,101890.80
2022-12-27T19:28:11.337Z,101887.80
2022-12-27T19:30:48.421Z,101883.20
2022-12-27T19:33:33.017Z,101891.40
2022-12-27T19:36:07.283Z,101885.40
2022-12-27T19:38:40.373Z,101890.00
2022-12-27T19:41:14.662Z,101882.60
2022-12-27T19:43:46.251Z,101886.60
2022-12-27T19:46:15.758Z,101888.20
2022-12-27T19:48:46.223Z,101888.80
2022-12-27T19:51:20.917Z,101895.80
2022-12-27T19:53:57.551Z,101897.60
2022-12-27T19:56:27.230Z,101894.40
2022-12-27T19:58:56.808Z,101897.40
2022-12-27T20:01:25.861Z,101892.40
2022-12-27T20:03:54.486Z,101891.00
2022-12-27T20:06:28.303Z,101891.20
2022-12-27T20:08:57.188Z,101889.20
2022-12-27T20:11:27.976Z,101890.00
2022-12-27T20:13:56.507Z,101892.60
2022-12-27T20:16:25.429Z,101892.40
2022-12-27T20:18:54.091Z,101891.40
2022-12-27T20:21:23.517Z,101889.20
2022-12-27T20:23:52.075Z,101882.80
2022-12-27T20:26:25.461Z,101881.00
2022-12-27T20:28:54.264Z,101874.80
2022-12-27T20:31:23.082Z,101881.00
2022-12-27T20:33:55.005Z,101875.40
2022-12-27T20:36:24.756Z,101876.80
2022-12-27T20:38:53.513Z,101870.60
2022-12-27T20:41:23.176Z,101871.60
2022-12-27T20:43:58.670Z,101869.00
2022-12-27T20:46:27.486Z,101871.40
2022-12-27T20:48:57.588Z,101874.40
2022-12-27T20:51:28.310Z,101874.00
2022-12-27T20:53:59.725Z,101873.00
2022-12-27T20:56:28.441Z,101877.80
2022-12-27T20:58:57.658Z,101879.40
2022-12-27T21:01:27.179Z,101880.80
2022-12-27T21:03:56.999Z,101874.80
2022-12-27T21:06:29.347Z,101873.20
2022-12-27T21:08:58.853Z,101871.00
2022-12-27T21:11:32.390Z,101873.20
2022-12-27T21:14:03.648Z,101870.80
2022-12-27T21:16:34.978Z,101870.00
2022-12-27T21:19:05.319Z,101879.60
2022-12-27T21:21:38.047Z,101877.80
2022-12-27T21:24:11.142Z,101882.60
2022-12-27T21:26:41.329Z,101884.00
2022-12-27T21:29:10.709Z,101882.60
2022-12-27T21:31:39.272Z,101883.20
2022-12-27T21:34:08.255Z,101877.20
2022-12-27T21:36:41.558Z,101874.40
2022-12-27T21:39:10.555Z,101872.60
2022-12-27T21:41:40.571Z,101870.60
2022-12-27T21:44:10.166Z,101873.20
2022-12-27T21:46:42.267Z,101870.20
2022-12-27T21:49:14.804Z,101871.80
2022-12-27T21:51:44.625Z,101869.20
2022-12-27T21:54:14.104Z,101870.40
2022-12-27T21:56:42.816Z,101870.80
2022-12-27T21:59:12.321Z,101864.40
2022-12-27T22:01:50.389Z,101856.00
2022-12-27T22:04:22.128Z,101859.80
2022-12-27T22:06:50.977Z,101852.00
2022-12-27T22:09:19.853Z,101853.60
2022-12-27T22:11:49.149Z,101853.00
2022-12-27T22:14:21.762Z,101848.00
2022-12-27T22:16:52.178Z,101841.00
2022-12-27T22:19:21.071Z,101838.00
2022-12-27T22:21:49.750Z,101839.60
2022-12-27T22:24:20.073Z,101839.60
2022-12-27T22:26:50.519Z,101833.00
2022-12-27T22:29:19.698Z,101837.20
2022-12-27T22:31:48.186Z,101845.20
2022-12-27T22:34:16.775Z,101848.20
2022-12-27T22:36:45.471Z,101850.00
2022-12-27T22:39:14.245Z,101848.40
2022-12-27T22:41:43.134Z,101844.00
2022-12-27T22:44:15.455Z,101841.20
2022-12-27T22:47:15.876Z,101836.20
2022-12-27T22:49:32.988Z,101834.20
2022-12-27T22:52:01.752Z,101828.20
2022-12-27T22:55:04.366Z,101826.40
2022-12-27T22:57:19.096Z,101824.80
2022-12-27T22:59:47.891Z,101828.60
2022-12-27T23:02:16.737Z,101824.00
2022-12-27T23:04:45.608Z,101823.00
2022-12-27T23:07:14.142Z,101824.80
2022-12-27T23:09:43.593Z,101824.40
2022-12-27T23:12:14.073Z,101823.20
2022-12-27T23:14:42.656Z,101816.20
2022-12-27T23:17:11.358Z,101807.80
2022-12-27T23:19:40.241Z,101795.40
2022-12-27T23:22:08.823Z,101794.40
2022-12-27T23:24:37.407Z,101791.00
2022-12-27T23:27:05.992Z,101778.80
2022-12-27T23:29:34.675Z,101772.00
2022-12-27T23:32:03.413Z,101769.40
2022-12-27T23:34:32.364Z,101765.00
2022-12-27T23:37:01.669Z,101764.20
2022-12-27T23:39:30.245Z,101762.40
2022-12-27T23:41:59.140Z,101764.40
2022-12-27T23:44:34.198Z,101745.60
2022-12-27T23:47:07.225Z,101744.60
2022-12-27T23:49:35.944Z,101745.20
2022-12-27T23:52:05.365Z,101743.00
2022-12-27T23:54:33.937Z,101741.60
2022-12-27T23:57:22.353Z,101736.60
2022-12-27T23:59:55.084Z,101732.20
